CheckWX is a tool to help pilots better visualize weather data.  It is not intended as a substitute for an official pre-flight weather briefing.

06:34:29 UTC

KBPI TAF
Miley Memorial Field Airport
Big Piney, Wyoming, USA
KBPI 230527Z 2306/2406 VRB03KT P6SM SCT200 FM232200 33006KT P6SM SCT050 SCT080 FM240500 33006KT P6SM VCSH BKN050

Feb-23@
06:00 UTC

Feb-23 @ 06:00 UTC

Feb-23@
22:00 UTC

Feb-23 @ 22:00 UTC

KBPI 230527Z 2306/2406 VRB03KT P6SM SCT200
Wind
  • Variable at 3 KTS
Cloud Levels
  • Scattered at 20,000' AGL

Feb-23@
22:00 UTC

Feb-23 @ 22:00 UTC

Feb-24@
05:00 UTC

Feb-24 @ 05:00 UTC

FM232200 33006KT P6SM SCT050 SCT080

From

From Standard forecast or significant change

Wind
  • 330° at 6 KTS
Cloud Levels
  • Scattered at 5,000' AGL
  • Scattered at 8,000' AGL

Feb-24@
05:00 UTC

Feb-24 @ 05:00 UTC

Feb-24@
06:00 UTC

Feb-24 @ 06:00 UTC

FM240500 33006KT P6SM VCSH BKN050

From

From Standard forecast or significant change

Wind
  • 330° at 6 KTS
Cloud Levels
  • Broken at 5,000' AGL